Flight Track Log - Related Links

Times and Time Zones

All times are in EDT time to prevent confusion due to time zone crossing. See the N9U flight status page for this flight to view local times or setup timezone preferences in your user account.

Time Position Orientation Groundspeed Altitude Reporting Facility
EDT Latitude Longitude Course Direction KTS MPH feet Rate Location/Type
Sat 10:13:51 AM 37.6722 -97.4097 33° Northeast 170 196 3,200  Level Kansas Center
Sat 10:14:47 AM 37.6958 -97.3600 59° Northeast 289 333 5,600 2,754 Climbing Kansas Center
Sat 10:14:52 AM 37.6933 -97.3456 102° East 258 297 6,000 2,951 Climbing Kansas Center
Sat 10:15:48 AM 37.6536 -97.2761 126° Southeast 286 329 8,600 2,513 Climbing Kansas Center
Sat 10:16:49 AM 37.5975 -97.1964 132° Southeast 300 345 10,900 2,311 Climbing Kansas Center
Sat 10:17:50 AM 37.5383 -97.1089 130° Southeast 324 373 13,300 2,390 Climbing Kansas Center
Sat 10:18:52 AM 37.4792 -97.0208 130° Southeast 328 377 15,800 2,293 Climbing Kansas Center
Sat 10:19:53 AM 37.4203 -96.9369 131° Southeast 323 372 18,000 1,918 Climbing Kansas Center
Sat 10:20:54 AM 37.3744 -96.8353 120° Southeast 335 386 19,700 1,756 Climbing Kansas Center
Sat 10:21:56 AM 37.3244 -96.7081 116° Southeast 339 390 21,600 1,659 Climbing Kansas Center
Sat 10:22:57 AM 37.2806 -96.6003 117° Southeast 343 395 23,100 1,475 Climbing Kansas Center
Sat 10:23:58 AM 37.2369 -96.4908 117° Southeast 347 399 24,600 1,426 Climbing Kansas Center
Sat 10:24:59 AM 37.1919 -96.3819 117° Southeast 347 399 26,000 1,366 Climbing Kansas Center
Sat 10:26:01 AM 37.1475 -96.2731 117° Southeast 348 400 27,400 1,415 Climbing Kansas Center
Sat 10:27:02 AM 37.1031 -96.1583 116° Southeast 358 412 28,900 1,426 Climbing Kansas Center
Sat 10:28:03 AM 37.0575 -96.0461 117° Southeast 362 417 30,300 1,268 Climbing Kansas Center
Sat 10:29:05 AM 37.0111 -95.9344 117° Southeast 362 417 31,500 1,073 Climbing Kansas Center
Sat 10:30:06 AM 36.9633 -95.8178 117° Southeast 373 429 32,500 984 Climbing Kansas Center
Sat 10:31:07 AM 36.9144 -95.6986 117° Southeast 382 440 33,500 976 Climbing Kansas Center
Sat 10:32:09 AM 36.8642 -95.5772 117° Southeast 389 448 34,500 1,073 Climbing Kansas Center
Sat 10:33:10 AM 36.8028 -95.4283 117° Southeast 396 456 35,700 1,180 Climbing Kansas Center
Sat 10:34:11 AM 36.7511 -95.3025 117° Southeast 402 463 36,900 1,171 Climbing Kansas Center
Sat 10:35:13 AM 36.7033 -95.1761 115° Southeast 401 461 38,100 1,171 Climbing Kansas Center
Sat 10:36:14 AM 36.6633 -95.0428 110° East 405 466 39,300 1,180 Climbing Kansas Center
Sat 10:37:15 AM 36.6217 -94.9175 112° Southeast 398 458 40,500 829 Climbing Kansas Center
Sat 10:38:17 AM 36.5808 -94.7900 112° Southeast 394 453 41,000 244 Climbing Kansas Center
Sat 10:39:18 AM 36.5372 -94.6542 112° Southeast 407 468 41,000  Level Kansas Center
Sat 10:40:20 AM 36.4903 -94.5108 112° Southeast 429 494 41,000  Level Kansas Center
Sat 10:41:21 AM 36.4428 -94.3683 112° Southeast 438 504 41,000  Level Kansas Center
Sat 10:42:22 AM 36.3961 -94.2253 112° Southeast 444 511 41,000  Level Kansas Center
Sat 10:43:24 AM 36.3486 -94.0819 112° Southeast 447 514 41,000  Level Kansas Center
Sat 10:44:25 AM 36.2986 -93.9397 114° Southeast 452 520 41,000  Level Kansas Center
Sat 10:45:27 AM 36.2431 -93.7661 112° Southeast 453 521 41,000  Level Kansas Center
Sat 10:46:28 AM 36.1958 -93.6231 112° Southeast 452 520 41,000  Level Kansas Center
Sat 10:47:29 AM 36.1469 -93.4803 113° Southeast 451 519 41,000  Level Kansas Center
Sat 10:48:31 AM 36.0983 -93.3386 113° Southeast 449 517 41,000  Level Kansas Center
Sat 10:49:39 AM 36.0497 -93.1975 113° Southeast 449 517 41,000  Level Memphis Center
Sat 10:50:40 AM 35.9903 -93.0247 113° Southeast 451 519 41,000  Level Memphis Center
Sat 10:51:42 AM 35.9417 -92.8806 113° Southeast 453 521 41,000  Level Memphis Center
Sat 10:52:44 AM 35.8922 -92.7386 113° Southeast 449 517 41,000  Level Memphis Center
Sat 10:53:46 AM 35.8425 -92.5947 113° Southeast 453 521 41,000  Level Memphis Center
Sat 10:54:47 AM 35.7922 -92.4517 113° Southeast 453 521 41,000  Level Memphis Center
Sat 10:55:49 AM 35.7433 -92.3125 113° Southeast 444 511 41,000  Level Memphis Center
Sat 10:56:51 AM 35.6939 -92.1719 113° Southeast 447 514 41,000  Level Memphis Center
Sat 10:57:53 AM 35.6458 -92.0325 113° Southeast 445 512 41,000  Level Memphis Center
Sat 10:58:54 AM 35.5889 -91.8669 113° Southeast 442 509 41,000  Level Memphis Center
Sat 10:59:56 AM 35.5381 -91.7297 114° Southeast 443 510 41,000  Level Memphis Center
Sat 11:00:57 AM 35.4881 -91.5917 114° Southeast 444 511 41,000  Level Memphis Center
Sat 11:01:59 AM 35.4386 -91.4547 114° Southeast 443 510 41,000  Level Memphis Center
Sat 11:03:01 AM 35.3903 -91.3175 113° Southeast 440 506 41,000  Level Memphis Center
Sat 11:04:02 AM 35.3417 -91.1803 113° Southeast 439 505 41,000  Level Memphis Center
Sat 11:05:04 AM 35.2875 -91.0453 116° Southeast 438 504 41,000  Level Memphis Center
Sat 11:06:06 AM 35.2286 -90.8856 114° Southeast 437 503 41,000  Level Memphis Center
Sat 11:07:07 AM 35.1794 -90.7481 114° Southeast 436 502 41,000 439 Level Memphis Center
Sat 11:08:09 AM 35.1300 -90.6136 114° Southeast 433 498 41,900 919 Climbing Memphis Center
Sat 11:09:11 AM 35.0797 -90.4819 115° Southeast 424 488 42,900 537 Climbing Memphis Center
Sat 11:10:12 AM 35.0300 -90.3517 115° Southeast 418 481 43,000 49 Climbing Memphis Center
Sat 11:11:14 AM 34.9792 -90.2153 114° Southeast 434 499 43,000  Level Memphis Center
Sat 11:12:16 AM 34.9281 -90.0786 114° Southeast 439 505 43,000  Level Memphis Center
Sat 11:13:17 AM 34.8761 -89.9428 115° Southeast 442 509 43,000  Level Memphis Center
Sat 11:14:19 AM 34.8211 -89.8011 115° Southeast 454 522 43,000  Level Memphis Center
Sat 11:15:21 AM 34.7678 -89.6597 115° Southeast 459 528 43,000  Level Memphis Center
Sat 11:16:22 AM 34.7081 -89.5044 115° Southeast 452 520 43,000  Level Memphis Center
Sat 11:17:24 AM 34.6564 -89.3689 115° Southeast 442 509 43,000  Level Memphis Center
Sat 11:18:26 AM 34.6042 -89.2328 115° Southeast 442 509 43,000  Level Memphis Center
Sat 11:19:27 AM 34.5514 -89.0956 115° Southeast 444 511 43,000  Level Memphis Center
Sat 11:20:29 AM 34.4886 -88.9364 116° Southeast 445 512 43,000  Level Memphis Center
Sat 11:21:31 AM 34.4414 -88.8144 115° Southeast 445 512 43,000  Level Memphis Center
Sat 11:22:33 AM 34.3881 -88.6789 115° Southeast 447 514 43,000  Level Memphis Center
Sat 11:23:34 AM 34.3344 -88.5447 116° Southeast 446 513 43,000  Level Memphis Center
Sat 11:24:36 AM 34.2806 -88.4094 116° Southeast 447 514 43,000  Level Memphis Center
Sat 11:25:38 AM 34.2181 -88.2492 115° Southeast 441 507 43,000  Level Memphis Center
Sat 11:26:39 AM 34.1639 -88.1183 117° Southeast 446 513 43,000  Level Memphis Center
Sat 11:27:41 AM 34.1097 -87.9822 116° Southeast 447 514 43,000  Level Memphis Center
Sat 11:28:43 AM 34.0553 -87.8461 116° Southeast 447 514 43,000  Level Memphis Center
Sat 11:29:44 AM 33.9992 -87.7114 117° Southeast 446 513 43,000  Level Memphis Center
Sat 11:30:46 AM 33.9356 -87.5533 116° Southeast 446 513 43,000  Level Memphis Center
Sat 11:31:48 AM 33.8808 -87.4181 116° Southeast 445 512 43,000  Level Memphis Center
Sat 11:32:19 AM 33.8558 -87.3658 120° Southeast 442 509 43,000  Level Atlanta Center
Sat 11:33:19 AM 33.7881 -87.2381 123° Southeast 442 509 43,000  Level Atlanta Center
Sat 11:34:19 AM 33.7225 -87.1108 122° Southeast 447 514 43,000  Level Atlanta Center
Sat 11:35:19 AM 33.6567 -86.9836 122° Southeast 452 520 43,000  Level Atlanta Center
Sat 11:36:19 AM 33.5908 -86.8592 122° Southeast 447 514 43,000  Level Atlanta Center
Sat 11:37:19 AM 33.5228 -86.7325 123° Southeast 447 514 43,000  Level Atlanta Center
Sat 11:38:19 AM 33.4564 -86.6083 123° Southeast 447 514 43,000  Level Atlanta Center
Sat 11:39:19 AM 33.3900 -86.4869 123° Southeast 447 514 43,000  Level Atlanta Center
Sat 11:40:19 AM 33.3217 -86.3508 121° Southeast 442 509 43,000  Level Atlanta Center
Sat 11:41:19 AM 33.2531 -86.2272 124° Southeast 442 509 43,000  Level Atlanta Center
Sat 11:42:19 AM 33.1903 -86.1067 122° Southeast 442 509 43,000  Level Atlanta Center
Sat 11:43:19 AM 33.1236 -85.9858 123° Southeast 442 509 43,000 -350 Level Atlanta Center
Sat 11:44:19 AM 33.0586 -85.8631 122° Southeast 448 516 42,300 -850 Descending Atlanta Center
Sat 11:45:19 AM 32.9914 -85.7403 123° Southeast 448 516 41,300 -1,000 Descending Atlanta Center
Sat 11:46:19 AM 32.9261 -85.6203 123° Southeast 442 509 40,300 -1,000 Descending Atlanta Center
Sat 11:47:19 AM 32.8589 -85.4978 123° Southeast 442 509 39,300 -950 Descending Atlanta Center
Sat 11:48:19 AM 32.7933 -85.3781 123° Southeast 442 509 38,400 -950 Descending Atlanta Center
Sat 11:49:19 AM 32.7300 -85.2586 122° Southeast 442 509 37,400 -1,000 Descending Atlanta Center
Sat 11:50:19 AM 32.6581 -85.1392 126° Southeast 442 509 36,400 -1,000 Descending Atlanta Center
Sat 11:51:19 AM 32.5922 -85.0175 123° Southeast 442 509 35,400 -1,000 Descending Atlanta Center
Sat 11:52:19 AM 32.5222 -84.8936 124° Southeast 447 514 34,400 -950 Descending Atlanta Center
Sat 11:53:19 AM 32.4542 -84.7747 124° Southeast 447 514 33,500 -700 Descending Atlanta Center
Sat 11:54:19 AM 32.3839 -84.6514 124° Southeast 447 514 33,000 -250 Descending Atlanta Center
Sat 11:55:19 AM 32.3156 -84.5278 123° Southeast 447 514 33,000  Level Atlanta Center
Sat 11:56:19 AM 32.2469 -84.4072 124° Southeast 447 514 33,000  Level Atlanta Center
Sat 11:57:19 AM 32.1783 -84.2842 123° Southeast 447 514 33,000  Level Atlanta Center
Sat 11:58:19 AM 32.1097 -84.1639 124° Southeast 447 514 33,000  Level Atlanta Center
Sat 11:59:19 AM 32.0408 -84.0436 124° Southeast 447 514 33,000 -500 Level Atlanta Center
Sat 12:00:19 PM 31.9742 -83.9214 123° Southeast 447 514 32,000 -1,500 Descending Atlanta Center
Sat 12:01:19 PM 31.9050 -83.7992 124° Southeast 447 514 30,000 -2,000 Descending Atlanta Center
Sat 12:02:04 PM 31.8547 -83.7169 126° Southeast 464 534 28,500 -2,000 Descending Jacksonville Center
Sat 12:03:04 PM 31.7847 -83.5867 122° Southeast 482 555 26,500 -1,950 Descending Jacksonville Center
Sat 12:04:04 PM 31.7122 -83.4689 126° Southeast 474 545 24,600 -1,750 Descending Jacksonville Center
Sat 12:05:04 PM 31.6417 -83.3489 125° Southeast 460 529 23,000 -800 Descending Jacksonville Center
Sat 12:06:04 PM 31.5753 -83.2339 124° Southeast 440 506 23,000  Level Jacksonville Center
Sat 12:07:04 PM 31.5086 -83.1217 125° Southeast 430 495 23,000  Level Jacksonville Center
Sat 12:08:04 PM 31.4442 -83.0094 124° Southeast 425 489 23,000 -100 Level Jacksonville Center
Sat 12:09:04 PM 31.3772 -82.8975 125° Southeast 425 489 22,800 -850 Descending Jacksonville Center
Sat 12:10:04 PM 31.3125 -82.7856 124° Southeast 425 489 21,300 -1,750 Descending Jacksonville Center
Sat 12:11:04 PM 31.2456 -82.6714 124° Southeast 425 489 19,300 -1,800 Descending Jacksonville Center
Sat 12:12:04 PM 31.1786 -82.5672 127° Southeast 415 478 17,700 -1,905 Descending Jacksonville Center
Sat 12:12:07 PM 31.1703 -82.5528 124° Southeast 408 470 17,300 -2,077 Descending Jacksonville Center
Sat 12:12:56 PM 31.1219 -82.4656 123° Southeast 393 452 15,900 -1,579 Descending Jacksonville Center
Sat 12:13:04 PM 31.1156 -82.4606 146° Southeast 403 464 15,800 -1,672 Descending Jacksonville Center
Sat 12:13:57 PM 31.0608 -82.3614 123° Southeast 389 448 14,200 -1,700 Descending Jacksonville Center
Sat 12:14:04 PM 31.0567 -82.3567 136° Southeast 397 457 14,100 -1,869 Descending Jacksonville Center
Sat 12:14:58 PM 30.9956 -82.2528 124° Southeast 376 433 12,300 -1,700 Descending Jacksonville Center
Sat 12:15:04 PM 30.9958 -82.2575 274° West 386 444 12,400 -1,545 Climbing Jacksonville Center
Sat 12:16:04 PM 30.9283 -82.1758 134° Southeast 366 421 10,600 -1,950 Descending Jacksonville Center
Sat 12:17:04 PM 30.8697 -82.1108 136° Southeast 328 377 8,500 -2,226 Descending Jacksonville Center
Sat 12:17:06 PM 30.8656 -82.1083 153° Southeast 274 315 8,300 -2,250 Descending Jacksonville Center
Sat 12:18:00 PM 30.8006 -82.0775 158° South 267 307 6,400 -1,862 Descending Jacksonville Center
Sat 12:18:04 PM 30.8006 -82.0750 90° East 292 336 6,500 -1,967 Climbing Jacksonville Center
Sat 12:19:01 PM 30.7292 -82.0394 157° South 274 315 4,400 -2,000 Descending Jacksonville Center
Sat 12:19:04 PM 30.7292 -82.0419 270° West 277 319 4,500 -1,810 Climbing Jacksonville Center
Sat 12:20:04 PM 30.6600 -82.0064 156° South 272 313 2,500 -1,210 Descending Jacksonville Center
Sat 12:21:03 PM 30.5908 -81.9683 155° Southeast 255 293 2,100 -500 Descending Jacksonville Center
Sat 12:21:04 PM 30.5953 -81.9731 318° Northwest 267 307 2,000 -98 Descending Jacksonville Center
Sat 12:22:04 PM 30.5447 -81.9206 138° Southeast 260 299 2,000 -50 Level Jacksonville Center
Sat 12:23:05 PM 30.5147 -81.8389 113° Southeast 243 280 1,900 -344 Descending Jacksonville Center
Sat 12:24:06 PM 30.4956 -81.7764 110° East 185 213 1,300 -590 Descending Jacksonville Center
Sat 12:25:07 PM 30.4889 -81.7306 100° East 107 123 700 -590 Descending Jacksonville Center

Login

Don't have an account? Register now (free) for customized features, flight alerts, and more!